createdAt,value
2019-02-23T00:00:08.640Z,74.50
2019-02-23T00:02:35.498Z,74.10
2019-02-23T00:05:02.210Z,73.91
2019-02-23T00:07:29.060Z,74.03
2019-02-23T00:09:55.886Z,74.98
2019-02-23T00:12:22.557Z,75.51
2019-02-23T00:14:49.264Z,75.26
2019-02-23T00:17:16.086Z,75.24
2019-02-23T00:19:42.989Z,75.13
2019-02-23T00:22:09.716Z,75.12
2019-02-23T00:24:36.589Z,74.73
2019-02-23T00:27:03.381Z,74.05
2019-02-23T00:29:30.194Z,74.79
2019-02-23T00:31:57.026Z,75.07
2019-02-23T00:34:23.836Z,75.20
2019-02-23T00:36:50.603Z,75.85
2019-02-23T00:39:17.469Z,75.36
2019-02-23T00:41:44.258Z,76.06
2019-02-23T00:44:11.063Z,76.19
2019-02-23T00:46:37.942Z,75.82
2019-02-23T00:49:04.565Z,75.88
2019-02-23T00:51:31.250Z,76.07
2019-02-23T00:53:58.044Z,76.65
2019-02-23T00:56:24.740Z,76.30
2019-02-23T00:58:51.527Z,76.64
2019-02-23T01:01:18.203Z,75.90
2019-02-23T01:03:45.130Z,76.60
2019-02-23T01:06:11.827Z,76.33
2019-02-23T01:08:38.654Z,76.28
2019-02-23T01:11:05.338Z,76.56
2019-02-23T01:13:32.022Z,77.03
2019-02-23T01:15:59.933Z,77.61
2019-02-23T01:18:26.601Z,78.37
2019-02-23T01:20:53.174Z,77.61
2019-02-23T01:23:19.951Z,78.00
2019-02-23T01:25:46.651Z,77.53
2019-02-23T01:28:13.365Z,76.67
2019-02-23T01:30:40.184Z,76.45
2019-02-23T01:33:07.052Z,77.63
2019-02-23T01:35:33.759Z,77.77
2019-02-23T01:38:00.613Z,77.11
2019-02-23T01:40:27.348Z,76.29
2019-02-23T01:42:54.149Z,76.56
2019-02-23T01:45:20.925Z,77.67
2019-02-23T01:47:47.722Z,77.83
2019-02-23T01:50:14.614Z,77.03
2019-02-23T01:52:41.381Z,77.20
2019-02-23T01:55:08.335Z,77.43
2019-02-23T01:57:35.113Z,77.94
2019-02-23T02:00:02.308Z,77.93
2019-02-23T02:02:29.037Z,78.42
2019-02-23T02:04:55.864Z,78.71
2019-02-23T02:07:22.660Z,78.57
2019-02-23T02:09:49.435Z,77.86
2019-02-23T02:12:16.666Z,77.98
2019-02-23T02:14:43.368Z,77.93
2019-02-23T02:17:10.073Z,78.08
2019-02-23T02:19:36.874Z,77.93
2019-02-23T02:22:03.602Z,78.86
2019-02-23T02:24:30.576Z,78.45
2019-02-23T02:26:57.254Z,79.27
2019-02-23T02:29:24.312Z,78.58
2019-02-23T02:31:51.133Z,78.75
2019-02-23T02:34:17.916Z,78.71
2019-02-23T02:36:45.010Z,78.75
2019-02-23T02:39:12.760Z,79.34
2019-02-23T02:41:39.714Z,79.41
2019-02-23T02:44:06.518Z,79.48
2019-02-23T02:46:33.165Z,79.75
2019-02-23T02:49:00.026Z,79.41
2019-02-23T02:51:26.698Z,79.25
2019-02-23T02:53:57.090Z,79.40
2019-02-23T02:56:23.756Z,79.62
2019-02-23T02:58:50.597Z,79.04
2019-02-23T03:01:17.470Z,79.70
2019-02-23T03:03:45.396Z,79.57
2019-02-23T03:06:12.180Z,79.87
2019-02-23T03:08:39.002Z,79.78
2019-02-23T03:11:05.796Z,79.78
2019-02-23T03:13:32.590Z,79.48
2019-02-23T03:15:59.447Z,79.55
2019-02-23T03:18:26.343Z,78.85
2019-02-23T03:20:53.290Z,78.96
2019-02-23T03:23:20.069Z,79.42
2019-02-23T03:25:46.784Z,79.64
2019-02-23T03:28:13.624Z,79.15
2019-02-23T03:30:40.441Z,79.20
2019-02-23T03:33:07.335Z,78.90
2019-02-23T03:35:34.122Z,78.59
2019-02-23T03:38:01.110Z,79.39
2019-02-23T03:40:27.940Z,79.08
2019-02-23T03:42:54.747Z,78.84
2019-02-23T03:45:21.596Z,79.45
2019-02-23T03:47:48.447Z,79.30
2019-02-23T03:50:15.430Z,80.13
2019-02-23T03:52:42.130Z,78.88
2019-02-23T03:55:09.074Z,79.09
2019-02-23T03:57:35.936Z,79.53
2019-02-23T04:00:02.951Z,79.59
2019-02-23T04:02:29.809Z,79.50
2019-02-23T04:04:56.518Z,79.86
2019-02-23T04:07:23.318Z,80.18
2019-02-23T04:09:50.150Z,80.74
2019-02-23T04:12:16.968Z,80.34
2019-02-23T04:14:43.840Z,80.61
2019-02-23T04:17:10.688Z,80.69
2019-02-23T04:19:37.471Z,80.62
2019-02-23T04:22:04.300Z,81.23
2019-02-23T04:24:31.213Z,81.00
2019-02-23T04:27:01.273Z,81.25
2019-02-23T04:29:28.251Z,80.79
2019-02-23T04:31:55.072Z,80.69
2019-02-23T04:34:21.968Z,81.03
2019-02-23T04:36:48.784Z,81.60
2019-02-23T04:39:15.522Z,81.59
2019-02-23T04:41:42.274Z,82.02
2019-02-23T04:44:09.131Z,81.88
2019-02-23T04:46:36.397Z,82.14
2019-02-23T04:49:03.249Z,82.20
2019-02-23T04:51:30.086Z,82.13
2019-02-23T04:53:56.778Z,81.80
2019-02-23T04:56:23.611Z,81.14
2019-02-23T04:58:50.464Z,81.18
2019-02-23T05:01:17.279Z,81.36
2019-02-23T05:03:44.192Z,81.76
2019-02-23T05:06:10.898Z,81.54
2019-02-23T05:08:37.894Z,81.17
2019-02-23T05:11:04.591Z,81.85
2019-02-23T05:13:31.289Z,81.89
2019-02-23T05:15:58.158Z,81.73
2019-02-23T05:18:24.751Z,81.63
2019-02-23T05:20:51.796Z,82.52
2019-02-23T05:23:18.607Z,82.15
2019-02-23T05:25:46.465Z,81.92
2019-02-23T05:28:13.469Z,81.86
2019-02-23T05:30:40.485Z,82.08
2019-02-23T05:33:07.362Z,81.89
2019-02-23T05:35:34.183Z,82.20
2019-02-23T05:38:01.114Z,81.67
2019-02-23T05:40:27.851Z,81.32
2019-02-23T05:43:01.081Z,81.91
2019-02-23T05:45:23.451Z,81.45
2019-02-23T05:47:50.385Z,81.70
2019-02-23T05:50:17.243Z,81.77
2019-02-23T05:52:44.164Z,81.52
2019-02-23T05:55:10.970Z,81.58
2019-02-23T05:57:37.895Z,81.10
2019-02-23T06:00:05.957Z,81.53
2019-02-23T06:02:34.832Z,81.92
2019-02-23T06:05:01.701Z,82.21
2019-02-23T06:07:28.583Z,82.25
2019-02-23T06:09:55.434Z,82.41
2019-02-23T06:12:22.233Z,82.36
2019-02-23T06:14:48.991Z,82.63
2019-02-23T06:17:15.887Z,82.68
2019-02-23T06:19:43.755Z,82.50
2019-02-23T06:22:10.468Z,82.26
2019-02-23T06:24:37.308Z,82.52
2019-02-23T06:27:06.215Z,82.40
2019-02-23T06:29:33.563Z,82.13
2019-02-23T06:32:00.390Z,81.94
2019-02-23T06:34:27.177Z,82.22
2019-02-23T06:36:54.070Z,82.28
2019-02-23T06:39:20.872Z,81.99
2019-02-23T06:41:47.678Z,81.46
2019-02-23T06:44:14.481Z,80.77
2019-02-23T06:46:41.481Z,80.47
2019-02-23T06:49:08.264Z,80.27
2019-02-23T06:51:35.104Z,80.22
2019-02-23T06:54:01.930Z,80.17
2019-02-23T06:56:28.613Z,79.70
2019-02-23T06:58:55.555Z,79.54
2019-02-23T07:01:22.260Z,79.79
2019-02-23T07:03:49.001Z,79.60
2019-02-23T07:06:15.892Z,78.76
2019-02-23T07:08:43.043Z,78.91
2019-02-23T07:11:09.887Z,78.08
2019-02-23T07:13:36.729Z,77.75
2019-02-23T07:16:03.517Z,77.08
2019-02-23T07:18:30.316Z,76.50
2019-02-23T07:20:57.240Z,75.59
2019-02-23T07:23:24.043Z,75.53
2019-02-23T07:25:50.868Z,74.74
2019-02-23T07:28:17.800Z,74.30
2019-02-23T07:30:44.681Z,73.77
2019-02-23T07:33:11.552Z,73.46
2019-02-23T07:35:38.449Z,72.28
2019-02-23T07:38:05.492Z,71.51
2019-02-23T07:40:32.171Z,70.19
2019-02-23T07:42:59.205Z,69.55
2019-02-23T07:45:25.893Z,68.73
2019-02-23T07:47:52.760Z,68.47
2019-02-23T07:50:19.572Z,67.86
2019-02-23T07:52:46.341Z,66.90
2019-02-23T07:55:13.169Z,66.56
2019-02-23T07:57:39.976Z,66.10
2019-02-23T08:00:07.476Z,65.30
2019-02-23T08:02:34.352Z,64.80
2019-02-23T08:05:01.312Z,64.65
2019-02-23T08:07:28.179Z,63.74
2019-02-23T08:09:54.949Z,62.71
2019-02-23T08:12:22.284Z,62.64
2019-02-23T08:14:49.222Z,61.70
2019-02-23T08:17:16.526Z,60.68
2019-02-23T08:19:44.048Z,61.21
2019-02-23T08:22:10.737Z,61.08
2019-02-23T08:24:37.694Z,59.94
2019-02-23T08:27:04.618Z,59.31
2019-02-23T08:29:31.691Z,57.78
2019-02-23T08:31:58.566Z,56.03
2019-02-23T08:34:25.478Z,53.47
2019-02-23T08:36:52.198Z,53.78
2019-02-23T08:39:18.939Z,52.85
2019-02-23T08:41:45.649Z,51.93
2019-02-23T08:44:12.480Z,50.11
2019-02-23T08:46:39.296Z,48.04
2019-02-23T08:49:05.996Z,45.46
2019-02-23T08:51:32.941Z,43.60
2019-02-23T08:53:59.792Z,41.73
2019-02-23T08:56:26.735Z,40.53
2019-02-23T08:58:53.482Z,38.83
2019-02-23T09:01:20.224Z,36.94
2019-02-23T09:03:49.770Z,34.27
2019-02-23T09:06:16.976Z,32.15
2019-02-23T09:08:43.763Z,30.03
2019-02-23T09:11:10.795Z,28.53
2019-02-23T09:13:37.721Z,28.20
2019-02-23T09:16:05.731Z,28.48
2019-02-23T09:18:32.411Z,29.35
2019-02-23T09:20:59.253Z,29.25
2019-02-23T09:23:26.246Z,29.93
2019-02-23T09:25:53.172Z,30.43
2019-02-23T09:28:23.000Z,30.02
2019-02-23T09:30:50.364Z,28.23
2019-02-23T09:33:17.916Z,26.08
2019-02-23T09:35:44.712Z,25.13
2019-02-23T09:38:11.522Z,24.78
2019-02-23T09:40:38.454Z,22.89
2019-02-23T09:43:05.285Z,22.58
2019-02-23T09:45:32.095Z,22.29
2019-02-23T09:47:59.300Z,21.52
2019-02-23T09:50:26.000Z,20.70
2019-02-23T09:52:52.771Z,21.33
2019-02-23T09:55:19.456Z,22.24
2019-02-23T09:57:46.299Z,22.37
2019-02-23T10:00:14.064Z,23.65
2019-02-23T10:02:41.166Z,23.86
2019-02-23T10:05:08.747Z,23.06
2019-02-23T10:07:37.852Z,23.03
2019-02-23T10:10:05.266Z,23.16
2019-02-23T10:12:32.131Z,21.73
2019-02-23T10:14:58.971Z,20.60
2019-02-23T10:17:25.968Z,19.29
2019-02-23T10:19:52.785Z,18.45
2019-02-23T10:22:19.629Z,17.94
2019-02-23T10:24:46.478Z,16.94
2019-02-23T10:27:13.339Z,16.12
2019-02-23T10:29:40.286Z,16.00
2019-02-23T10:32:07.178Z,15.33
2019-02-23T10:34:33.876Z,15.57
2019-02-23T10:37:00.738Z,15.72
2019-02-23T10:39:27.589Z,16.58
2019-02-23T10:41:54.342Z,17.85
2019-02-23T10:44:27.635Z,17.99
2019-02-23T10:46:54.603Z,19.08
2019-02-23T10:49:53.978Z,19.12
2019-02-23T10:52:21.259Z,18.65
2019-02-23T10:54:48.079Z,19.01
2019-02-23T10:57:14.700Z,17.41
2019-02-23T10:59:41.418Z,17.01
2019-02-23T11:02:08.542Z,15.80
2019-02-23T11:04:35.423Z,14.90
2019-02-23T11:07:02.264Z,14.90
2019-02-23T11:09:35.089Z,14.35
2019-02-23T11:12:09.574Z,13.63
2019-02-23T11:14:36.354Z,13.47
2019-02-23T11:17:03.319Z,12.97
2019-02-23T11:19:30.256Z,12.95
2019-02-23T11:21:58.145Z,13.84
2019-02-23T11:24:25.172Z,13.75
2019-02-23T11:26:52.154Z,13.27
2019-02-23T11:29:19.147Z,12.88
2019-02-23T11:31:45.940Z,12.73
2019-02-23T11:34:12.836Z,13.14
2019-02-23T11:36:39.790Z,12.15
2019-02-23T11:39:07.629Z,12.64
2019-02-23T11:41:35.338Z,11.77
2019-02-23T11:44:04.737Z,11.42
2019-02-23T11:46:31.905Z,11.38
2019-02-23T11:49:00.161Z,11.19
2019-02-23T11:51:29.812Z,11.20
2019-02-23T11:53:56.906Z,11.39
2019-02-23T11:56:27.131Z,12.00
2019-02-23T11:58:54.349Z,12.05
2019-02-23T12:01:21.751Z,11.33
2019-02-23T12:03:49.606Z,12.07
2019-02-23T12:06:17.292Z,11.21
2019-02-23T12:08:44.515Z,10.50
2019-02-23T12:11:11.455Z,11.17
2019-02-23T12:13:38.512Z,10.79
2019-02-23T12:16:05.905Z,10.71
2019-02-23T12:18:36.298Z,11.73
2019-02-23T12:21:23.504Z,12.05
2019-02-23T12:23:51.497Z,13.39
2019-02-23T12:26:20.324Z,13.64
2019-02-23T12:28:47.659Z,14.57
2019-02-23T12:31:14.687Z,15.12
2019-02-23T12:33:42.286Z,15.48
2019-02-23T12:36:10.112Z,16.15
2019-02-23T12:38:37.073Z,16.09
2019-02-23T12:41:04.210Z,15.82
2019-02-23T12:43:31.166Z,15.96
2019-02-23T12:46:00.048Z,16.72
2019-02-23T12:48:27.134Z,16.92
2019-02-23T12:50:54.545Z,15.29
2019-02-23T12:53:22.148Z,14.63
2019-02-23T12:55:49.609Z,16.16
2019-02-23T12:58:16.847Z,15.20
2019-02-23T13:00:44.128Z,16.32
2019-02-23T13:03:11.531Z,16.24
2019-02-23T13:05:38.613Z,16.71
2019-02-23T13:08:08.534Z,17.43
2019-02-23T13:10:36.159Z,17.91
2019-02-23T13:13:34.701Z,18.89
2019-02-23T13:16:21.530Z,20.17
2019-02-23T13:19:31.738Z,19.03
2019-02-23T13:22:44.702Z,19.76
2019-02-23T13:26:07.695Z,19.26
2019-02-23T13:29:01.430Z,19.06
2019-02-23T13:32:01.564Z,20.43
2019-02-23T13:35:14.858Z,20.44
2019-02-23T13:38:28.618Z,19.83
2019-02-23T13:41:46.959Z,19.78
2019-02-23T13:44:56.828Z,20.15
2019-02-23T13:48:14.004Z,20.20
2019-02-23T13:51:12.500Z,21.37
2019-02-23T13:54:10.711Z,20.92
2019-02-23T13:57:12.373Z,22.12
2019-02-23T14:00:03.002Z,21.56
2019-02-23T14:03:23.257Z,22.33
2019-02-23T14:06:17.059Z,22.85
2019-02-23T14:09:24.993Z,21.11
2019-02-23T14:12:27.356Z,21.67
2019-02-23T14:15:20.093Z,21.53
2019-02-23T14:18:13.969Z,21.74
2019-02-23T14:21:19.620Z,21.78
2019-02-23T14:24:50.190Z,22.24
2019-02-23T14:28:24.116Z,22.90
2019-02-23T14:31:34.281Z,23.22
2019-02-23T14:34:14.711Z,23.13
2019-02-23T14:37:08.134Z,24.01
2019-02-23T14:40:09.526Z,24.65
2019-02-23T14:42:49.082Z,24.99
2019-02-23T14:45:52.452Z,25.48
2019-02-23T14:48:51.247Z,25.07
2019-02-23T14:52:01.815Z,24.75
2019-02-23T14:55:08.548Z,25.18
2019-02-23T14:58:32.589Z,25.05
2019-02-23T15:01:26.912Z,24.75
2019-02-23T15:04:33.201Z,24.68
2019-02-23T15:07:28.338Z,25.27
2019-02-23T15:10:33.211Z,24.72
2019-02-23T15:13:36.198Z,25.48
2019-02-23T15:16:39.236Z,26.33
2019-02-23T15:19:34.258Z,26.72
2019-02-23T15:23:04.340Z,26.16
2019-02-23T15:25:49.144Z,26.73
2019-02-23T15:28:38.604Z,26.58
2019-02-23T15:31:34.700Z,26.66
2019-02-23T15:34:42.813Z,27.02
2019-02-23T15:37:37.767Z,27.46
2019-02-23T15:40:42.708Z,27.61
2019-02-23T15:43:49.000Z,27.99
2019-02-23T15:46:44.157Z,28.42
2019-02-23T15:49:33.545Z,28.57
2019-02-23T15:52:01.999Z,29.57
2019-02-23T15:54:29.304Z,30.31
2019-02-23T15:56:56.140Z,30.21
2019-02-23T15:59:22.914Z,30.85
2019-02-23T16:01:49.716Z,31.47
2019-02-23T16:04:16.367Z,31.64
2019-02-23T16:06:43.171Z,32.24
2019-02-23T16:09:09.995Z,32.44
2019-02-23T16:11:36.738Z,32.55
2019-02-23T16:14:03.546Z,32.99
2019-02-23T16:16:30.617Z,32.59
2019-02-23T16:18:57.368Z,33.49
2019-02-23T16:21:24.242Z,34.13
2019-02-23T16:23:50.796Z,34.44
2019-02-23T16:26:18.638Z,35.19
2019-02-23T16:28:45.280Z,36.10
2019-02-23T16:31:12.100Z,36.56
2019-02-23T16:33:38.879Z,36.62
2019-02-23T16:36:05.558Z,37.03
2019-02-23T16:38:32.397Z,36.71
2019-02-23T16:40:59.057Z,37.72
2019-02-23T16:43:26.118Z,37.39
2019-02-23T16:45:52.811Z,37.90
2019-02-23T16:48:19.558Z,38.91
2019-02-23T16:50:46.518Z,39.22
2019-02-23T16:53:13.406Z,39.65
2019-02-23T16:55:50.597Z,39.72
2019-02-23T16:58:09.074Z,40.35
2019-02-23T17:00:36.054Z,40.03
2019-02-23T17:03:02.905Z,41.00
2019-02-23T17:05:29.674Z,41.71
2019-02-23T17:07:56.344Z,40.80
2019-02-23T17:10:23.147Z,40.91
2019-02-23T17:12:49.875Z,42.26
2019-02-23T17:15:16.892Z,42.81
2019-02-23T17:17:43.673Z,42.23
2019-02-23T17:20:11.120Z,43.13
2019-02-23T17:22:38.177Z,43.53
2019-02-23T17:25:04.969Z,40.78
2019-02-23T17:27:36.235Z,40.94
2019-02-23T17:30:00.582Z,41.91
2019-02-23T17:32:27.578Z,42.30
2019-02-23T17:34:54.391Z,44.24
2019-02-23T17:37:21.170Z,44.60
2019-02-23T17:39:48.938Z,44.42
2019-02-23T17:42:27.357Z,44.88
2019-02-23T17:44:44.294Z,44.43
2019-02-23T17:47:11.014Z,45.02
2019-02-23T17:49:37.793Z,44.41
2019-02-23T17:52:04.569Z,45.20
2019-02-23T17:54:31.452Z,45.02
2019-02-23T17:56:58.278Z,46.39
2019-02-23T17:59:25.163Z,45.92
2019-02-23T18:01:51.915Z,46.49
2019-02-23T18:04:18.576Z,46.69
2019-02-23T18:06:46.575Z,47.95
2019-02-23T18:09:13.379Z,47.02
2019-02-23T18:11:40.136Z,48.35
2019-02-23T18:14:06.939Z,47.93
2019-02-23T18:16:33.681Z,48.87
2019-02-23T18:19:00.760Z,48.80
2019-02-23T18:21:27.535Z,47.84
2019-02-23T18:23:54.387Z,48.90
2019-02-23T18:26:21.471Z,49.15
2019-02-23T18:28:48.473Z,49.92
2019-02-23T18:31:15.391Z,50.73
2019-02-23T18:33:42.059Z,50.14
2019-02-23T18:36:08.889Z,50.67
2019-02-23T18:38:35.711Z,50.31
2019-02-23T18:41:02.527Z,51.18
2019-02-23T18:43:29.388Z,50.89
2019-02-23T18:45:56.156Z,50.67
2019-02-23T18:48:23.140Z,50.78
2019-02-23T18:50:50.001Z,51.81
2019-02-23T18:53:16.713Z,51.31
2019-02-23T18:55:44.593Z,52.43
2019-02-23T18:58:11.480Z,52.61
2019-02-23T19:00:38.363Z,52.75
2019-02-23T19:03:05.202Z,53.55
2019-02-23T19:05:32.071Z,51.45
2019-02-23T19:07:58.927Z,51.05
2019-02-23T19:10:26.022Z,50.74
2019-02-23T19:12:52.859Z,50.92
2019-02-23T19:15:19.556Z,50.37
2019-02-23T19:17:46.234Z,49.83
2019-02-23T19:20:13.773Z,50.46
2019-02-23T19:22:40.569Z,50.33
2019-02-23T19:25:08.064Z,50.34
2019-02-23T19:27:35.923Z,50.58
2019-02-23T19:30:03.222Z,50.46
2019-02-23T19:32:29.935Z,50.64
2019-02-23T19:34:56.748Z,50.87
2019-02-23T19:37:23.414Z,50.61
2019-02-23T19:39:50.339Z,50.52
2019-02-23T19:42:17.169Z,51.05
2019-02-23T19:44:43.967Z,51.45
2019-02-23T19:47:16.447Z,51.59
2019-02-23T19:49:43.301Z,50.97
2019-02-23T19:52:10.189Z,51.37
2019-02-23T19:54:36.985Z,52.00
2019-02-23T19:57:04.849Z,51.98
2019-02-23T19:59:31.764Z,52.43
2019-02-23T20:01:59.578Z,52.12
2019-02-23T20:04:27.446Z,52.29
2019-02-23T20:06:54.240Z,52.18
2019-02-23T20:09:21.007Z,52.36
2019-02-23T20:11:47.827Z,52.88
2019-02-23T20:14:14.552Z,53.41
2019-02-23T20:16:41.587Z,53.03
2019-02-23T20:19:08.325Z,53.18
2019-02-23T20:21:35.219Z,54.13
2019-02-23T20:24:02.039Z,53.88
2019-02-23T20:26:28.876Z,54.17
2019-02-23T20:28:55.777Z,53.42
2019-02-23T20:31:22.615Z,53.73
2019-02-23T20:33:49.631Z,53.61
2019-02-23T20:36:16.436Z,53.73
2019-02-23T20:38:43.238Z,53.92
2019-02-23T20:41:11.199Z,53.87
2019-02-23T20:43:37.985Z,53.49
2019-02-23T20:46:04.704Z,53.78
2019-02-23T20:48:31.502Z,54.41
2019-02-23T20:51:00.580Z,54.66
2019-02-23T20:53:27.409Z,54.37
2019-02-23T20:56:00.912Z,54.64
2019-02-23T20:58:27.889Z,54.51
2019-02-23T21:00:54.697Z,54.85
2019-02-23T21:03:21.556Z,55.16
2019-02-23T21:05:56.413Z,55.90
2019-02-23T21:08:23.349Z,55.62
2019-02-23T21:10:50.067Z,56.28
2019-02-23T21:13:16.930Z,56.76
2019-02-23T21:15:43.688Z,56.65
2019-02-23T21:18:11.859Z,56.81
2019-02-23T21:20:38.739Z,56.48
2019-02-23T21:23:06.448Z,57.18
2019-02-23T21:25:33.364Z,56.87
2019-02-23T21:28:00.294Z,57.24
2019-02-23T21:30:27.813Z,57.58
2019-02-23T21:32:54.927Z,57.68
2019-02-23T21:35:21.616Z,58.74
2019-02-23T21:37:48.411Z,59.32
2019-02-23T21:40:21.423Z,59.37
2019-02-23T21:42:50.315Z,58.75
2019-02-23T21:45:20.206Z,59.42
2019-02-23T21:47:47.032Z,58.45
2019-02-23T21:50:13.959Z,58.84
2019-02-23T21:52:42.091Z,58.98
2019-02-23T21:55:10.244Z,59.55
2019-02-23T21:57:37.222Z,59.77
2019-02-23T22:00:04.726Z,60.21
2019-02-23T22:02:32.575Z,60.09
2019-02-23T22:04:59.310Z,60.41
2019-02-23T22:07:26.094Z,59.99
2019-02-23T22:09:52.885Z,60.04
2019-02-23T22:12:19.632Z,60.06
2019-02-23T22:14:46.477Z,60.97
2019-02-23T22:17:13.312Z,60.11
2019-02-23T22:19:40.124Z,60.44
2019-02-23T22:22:06.895Z,60.27
2019-02-23T22:24:33.729Z,62.02
2019-02-23T22:27:00.509Z,60.95
2019-02-23T22:29:27.228Z,60.62
2019-02-23T22:31:54.093Z,61.50
2019-02-23T22:34:20.823Z,61.71
2019-02-23T22:36:47.611Z,62.03
2019-02-23T22:39:14.460Z,61.69
2019-02-23T22:41:49.451Z,61.39
2019-02-23T22:44:10.050Z,61.32
2019-02-23T22:46:36.907Z,61.16
2019-02-23T22:49:03.913Z,61.41
2019-02-23T22:51:30.735Z,61.25
2019-02-23T22:53:57.493Z,62.03
2019-02-23T22:56:24.305Z,61.54
2019-02-23T22:58:51.296Z,62.11
2019-02-23T23:01:18.859Z,61.97
2019-02-23T23:03:45.549Z,62.52
2019-02-23T23:06:12.351Z,62.21
2019-02-23T23:08:39.100Z,62.35
2019-02-23T23:11:05.786Z,62.62
2019-02-23T23:13:32.700Z,63.49
2019-02-23T23:15:59.429Z,63.09
2019-02-23T23:18:26.388Z,62.81
2019-02-23T23:20:53.135Z,63.23
2019-02-23T23:23:19.817Z,63.02
2019-02-23T23:25:46.716Z,63.03
2019-02-23T23:28:13.524Z,62.67
2019-02-23T23:30:40.383Z,63.23
2019-02-23T23:33:07.164Z,63.19
2019-02-23T23:35:33.931Z,63.62
2019-02-23T23:38:04.108Z,63.16
2019-02-23T23:40:30.900Z,64.41
2019-02-23T23:42:58.404Z,64.54
2019-02-23T23:45:25.205Z,65.97
2019-02-23T23:47:52.015Z,65.97
2019-02-23T23:50:18.845Z,64.87
2019-02-23T23:52:45.664Z,65.18
2019-02-23T23:55:12.407Z,66.46
2019-02-23T23:57:39.193Z,66.53
